createdAt,value
2018-08-03T00:00:48.224Z,3.57
2018-08-03T00:03:17.700Z,3.87
2018-08-03T00:05:48.041Z,6.50
2018-08-03T00:08:17.496Z,3.03
2018-08-03T00:10:47.050Z,4.40
2018-08-03T00:13:18.230Z,3.83
2018-08-03T00:15:47.646Z,3.73
2018-08-03T00:18:17.171Z,3.73
2018-08-03T00:20:46.605Z,5.20
2018-08-03T00:23:15.697Z,4.00
2018-08-03T00:25:45.164Z,3.33
2018-08-03T00:28:14.890Z,3.17
2018-08-03T00:30:44.272Z,6.27
2018-08-03T00:33:13.705Z,5.47
2018-08-03T00:35:43.134Z,5.20
2018-08-03T00:38:12.614Z,5.43
2018-08-03T00:40:42.034Z,5.87
2018-08-03T00:43:11.441Z,5.90
2018-08-03T00:45:40.839Z,4.77
2018-08-03T00:48:11.101Z,4.43
2018-08-03T00:50:40.541Z,3.70
2018-08-03T00:53:09.913Z,7.17
2018-08-03T00:55:43.234Z,5.43
2018-08-03T00:58:12.705Z,4.60
2018-08-03T01:00:42.125Z,5.93
2018-08-03T01:03:11.937Z,9.87
2018-08-03T01:05:41.357Z,4.37
2018-08-03T01:08:14.505Z,3.50
2018-08-03T01:10:50.267Z,5.17
2018-08-03T01:13:19.718Z,4.47
2018-08-03T01:15:48.921Z,10.53
2018-08-03T01:18:18.418Z,4.43
2018-08-03T01:20:47.879Z,5.33
2018-08-03T01:23:17.326Z,5.17
2018-08-03T01:25:47.258Z,6.13
2018-08-03T01:28:16.933Z,4.30
2018-08-03T01:30:46.329Z,5.07
2018-08-03T01:33:19.541Z,3.70
2018-08-03T01:35:48.963Z,5.23
2018-08-03T01:38:19.380Z,3.50
2018-08-03T01:40:48.802Z,3.77
2018-08-03T01:43:18.214Z,3.53
2018-08-03T01:45:48.178Z,4.83
2018-08-03T01:48:17.705Z,6.87
2018-08-03T01:50:46.825Z,4.60
2018-08-03T01:53:17.741Z,5.83
2018-08-03T01:55:47.219Z,4.27
2018-08-03T01:58:16.793Z,4.47
2018-08-03T02:00:47.811Z,6.27
2018-08-03T02:03:17.256Z,4.60
2018-08-03T02:05:50.401Z,5.77
2018-08-03T02:08:20.766Z,6.70
2018-08-03T02:10:50.186Z,5.13
2018-08-03T02:13:19.731Z,5.40
2018-08-03T02:15:49.174Z,7.70
2018-08-03T02:18:19.473Z,5.37
2018-08-03T02:20:48.829Z,4.57
2018-08-03T02:23:17.952Z,4.10
2018-08-03T02:25:49.339Z,4.13
2018-08-03T02:28:18.829Z,5.67
2018-08-03T02:30:48.190Z,8.10
2018-08-03T02:33:18.411Z,5.27
2018-08-03T02:35:47.817Z,6.90
2018-08-03T02:38:17.226Z,4.77
2018-08-03T02:40:46.594Z,4.47
2018-08-03T02:43:15.982Z,4.53
2018-08-03T02:45:45.450Z,3.80
2018-08-03T02:48:14.897Z,3.83
2018-08-03T02:50:44.443Z,3.40
2018-08-03T02:53:13.917Z,6.67
2018-08-03T02:55:43.333Z,5.93
2018-08-03T02:58:12.981Z,4.50
2018-08-03T03:00:42.442Z,7.60
2018-08-03T03:03:11.893Z,5.10
2018-08-03T03:05:41.286Z,7.07
2018-08-03T03:08:10.760Z,8.77
2018-08-03T03:10:40.193Z,4.40
2018-08-03T03:13:09.557Z,6.37
2018-08-03T03:15:40.276Z,6.10
2018-08-03T03:18:09.733Z,3.90
2018-08-03T03:20:39.304Z,5.00
2018-08-03T03:23:10.289Z,4.17
2018-08-03T03:25:39.733Z,5.23
2018-08-03T03:28:09.106Z,5.37
2018-08-03T03:30:41.982Z,5.97
2018-08-03T03:33:11.450Z,5.40
2018-08-03T03:35:44.927Z,4.90
2018-08-03T03:38:14.312Z,5.60
2018-08-03T03:40:43.909Z,6.57
2018-08-03T03:43:13.258Z,4.70
2018-08-03T03:45:42.760Z,5.90
2018-08-03T03:48:13.182Z,6.30
2018-08-03T03:50:42.622Z,6.40
2018-08-03T03:53:12.121Z,4.87
2018-08-03T03:55:41.885Z,8.03
2018-08-03T03:58:11.365Z,6.17
2018-08-03T04:00:40.791Z,6.80
2018-08-03T04:03:10.499Z,6.90
2018-08-03T04:05:39.953Z,5.47
2018-08-03T04:08:10.144Z,6.37
2018-08-03T04:10:39.667Z,7.83
2018-08-03T04:13:09.074Z,6.67
2018-08-03T04:15:40.206Z,5.70
2018-08-03T04:18:14.559Z,6.07
2018-08-03T04:20:46.158Z,5.60
2018-08-03T04:23:15.610Z,7.43
2018-08-03T04:25:45.317Z,5.43
2018-08-03T04:28:15.789Z,7.10
2018-08-03T04:30:45.215Z,7.93
2018-08-03T04:33:15.252Z,7.27
2018-08-03T04:35:44.630Z,7.27
2018-08-03T04:38:14.049Z,8.23
2018-08-03T04:40:47.102Z,5.47
2018-08-03T04:43:16.518Z,7.00
2018-08-03T04:45:46.753Z,7.97
2018-08-03T04:48:16.149Z,6.20
2018-08-03T04:50:45.542Z,8.20
2018-08-03T04:53:17.367Z,9.57
2018-08-03T04:55:46.867Z,8.77
2018-08-03T04:58:16.285Z,9.07
2018-08-03T05:00:46.590Z,8.97
2018-08-03T05:03:16.002Z,9.77
2018-08-03T05:05:45.113Z,9.37
2018-08-03T05:08:14.890Z,14.00
2018-08-03T05:10:44.382Z,12.43
2018-08-03T05:13:13.970Z,9.23
2018-08-03T05:15:43.374Z,9.80
2018-08-03T05:18:12.934Z,8.77
2018-08-03T05:20:42.523Z,12.13
2018-08-03T05:23:11.897Z,8.90
2018-08-03T05:25:41.278Z,11.20
2018-08-03T05:28:11.291Z,11.93
2018-08-03T05:30:40.733Z,17.23
2018-08-03T05:33:10.130Z,9.77
2018-08-03T05:35:39.833Z,10.03
2018-08-03T05:38:09.317Z,12.27
2018-08-03T05:40:38.817Z,11.27
2018-08-03T05:43:10.505Z,13.60
2018-08-03T05:45:39.869Z,12.90
2018-08-03T05:48:09.757Z,10.93
2018-08-03T05:50:39.474Z,11.97
2018-08-03T05:53:08.958Z,14.83
2018-08-03T05:55:38.433Z,15.67
2018-08-03T05:58:08.355Z,10.63
2018-08-03T06:00:37.816Z,14.83
2018-08-03T06:03:10.879Z,11.03
2018-08-03T06:05:40.289Z,12.57
2018-08-03T06:08:11.060Z,12.57
2018-08-03T06:10:40.541Z,12.87
2018-08-03T06:13:10.162Z,15.37
2018-08-03T06:15:40.986Z,13.27
2018-08-03T06:18:10.345Z,18.50
2018-08-03T06:20:39.877Z,12.93
2018-08-03T06:23:10.062Z,18.03
2018-08-03T06:25:39.208Z,13.00
2018-08-03T06:28:08.670Z,16.40
2018-08-03T06:30:38.248Z,15.93
2018-08-03T06:33:07.706Z,12.70
2018-08-03T06:35:37.059Z,19.77
2018-08-03T06:38:06.848Z,13.33
2018-08-03T06:40:36.257Z,11.73
2018-08-03T06:43:05.601Z,14.17
2018-08-03T06:45:35.001Z,13.90
2018-08-03T06:48:04.437Z,15.83
2018-08-03T06:50:34.030Z,13.77
2018-08-03T06:53:03.500Z,15.03
2018-08-03T06:55:32.900Z,15.93
2018-08-03T06:58:08.824Z,10.90
2018-08-03T07:00:39.089Z,10.40
2018-08-03T07:03:12.610Z,12.90
2018-08-03T07:05:42.032Z,16.07
2018-08-03T07:08:11.897Z,12.40
2018-08-03T07:10:41.331Z,10.83
2018-08-03T07:13:11.336Z,11.23
2018-08-03T07:15:41.556Z,8.77
2018-08-03T07:18:11.621Z,8.63
2018-08-03T07:20:41.083Z,10.37
2018-08-03T07:23:10.785Z,10.83
2018-08-03T07:25:40.203Z,8.50
2018-08-03T07:28:09.556Z,11.13
2018-08-03T07:30:39.934Z,10.70
2018-08-03T07:33:09.296Z,8.40
2018-08-03T07:35:42.612Z,12.07
2018-08-03T07:38:12.005Z,10.97
2018-08-03T07:40:41.637Z,10.23
2018-08-03T07:43:11.183Z,9.97
2018-08-03T07:45:40.513Z,7.53
2018-08-03T07:48:09.966Z,10.87
2018-08-03T07:50:40.077Z,9.67
2018-08-03T07:53:09.529Z,9.57
2018-08-03T07:55:39.605Z,13.37
2018-08-03T07:58:09.045Z,11.30
2018-08-03T08:00:38.437Z,10.50
2018-08-03T08:03:07.922Z,8.77
2018-08-03T08:05:37.294Z,9.73
2018-08-03T08:08:06.653Z,12.57
2018-08-03T08:10:35.769Z,7.53
2018-08-03T08:13:05.197Z,13.10
2018-08-03T08:15:34.569Z,9.50
2018-08-03T08:18:04.052Z,7.40
2018-08-03T08:20:33.529Z,6.90
2018-08-03T08:23:02.955Z,7.40
2018-08-03T08:25:34.844Z,6.17
2018-08-03T08:28:04.271Z,7.60
2018-08-03T08:30:33.672Z,12.43
2018-08-03T08:33:03.617Z,9.37
2018-08-03T08:35:32.936Z,5.13
2018-08-03T08:38:02.298Z,6.17
2018-08-03T08:40:31.772Z,10.57
2018-08-03T08:43:01.173Z,7.83
2018-08-03T08:45:30.572Z,9.20
2018-08-03T08:48:00.118Z,7.03
2018-08-03T08:50:29.500Z,9.27
2018-08-03T08:52:59.335Z,6.43
2018-08-03T08:55:28.737Z,5.70
2018-08-03T08:57:58.328Z,6.83
2018-08-03T09:00:27.804Z,7.80
2018-08-03T09:02:57.264Z,10.10
2018-08-03T09:05:26.609Z,4.10
2018-08-03T09:08:00.301Z,6.47
2018-08-03T09:10:29.721Z,10.93
2018-08-03T09:13:01.365Z,5.97
2018-08-03T09:15:30.724Z,6.10
2018-08-03T09:18:00.110Z,8.20
2018-08-03T09:20:29.453Z,6.23
2018-08-03T09:22:58.869Z,10.70
2018-08-03T09:25:28.198Z,6.07
2018-08-03T09:27:57.607Z,6.87
2018-08-03T09:30:26.973Z,7.27
2018-08-03T09:32:56.376Z,5.00
2018-08-03T09:35:25.720Z,6.43
2018-08-03T09:37:55.130Z,9.70
2018-08-03T09:40:24.516Z,6.07
2018-08-03T09:42:54.798Z,6.50
2018-08-03T09:45:24.140Z,4.57
2018-08-03T09:47:54.971Z,4.87
2018-08-03T09:50:25.137Z,5.97
2018-08-03T09:52:54.730Z,3.17
2018-08-03T09:55:24.265Z,4.83
2018-08-03T09:57:53.553Z,6.33
2018-08-03T10:00:28.137Z,3.70
2018-08-03T10:02:57.657Z,7.87
2018-08-03T10:05:27.020Z,7.55
2018-08-03T10:07:56.807Z,6.63
2018-08-03T10:10:26.313Z,6.17
2018-08-03T10:12:55.780Z,8.73
2018-08-03T10:15:28.338Z,4.30
2018-08-03T10:17:57.752Z,7.53
2018-08-03T10:20:27.437Z,6.93
2018-08-03T10:22:56.844Z,6.78
2018-08-03T10:25:26.203Z,6.33
2018-08-03T10:27:55.965Z,4.40
2018-08-03T10:30:25.369Z,11.28
2018-08-03T10:32:54.773Z,6.70
2018-08-03T10:35:24.944Z,5.28
2018-08-03T10:37:54.328Z,6.55
2018-08-03T10:40:23.873Z,7.83
2018-08-03T10:42:53.468Z,8.48
2018-08-03T10:45:22.801Z,4.03
2018-08-03T10:47:52.189Z,8.83
2018-08-03T10:50:22.049Z,6.12
2018-08-03T10:52:51.573Z,8.03
2018-08-03T10:55:20.909Z,4.25
2018-08-03T10:57:51.797Z,11.75
2018-08-03T11:00:31.909Z,5.47
2018-08-03T11:03:01.725Z,3.80
2018-08-03T11:05:31.182Z,8.65
2018-08-03T11:08:00.565Z,5.45
2018-08-03T11:10:29.985Z,6.75
2018-08-03T11:12:59.475Z,4.35
2018-08-03T11:15:29.514Z,6.78
2018-08-03T11:17:58.925Z,4.00
2018-08-03T11:20:29.849Z,8.20
2018-08-03T11:22:59.281Z,5.57
2018-08-03T11:25:28.693Z,4.17
2018-08-03T11:28:00.006Z,4.60
2018-08-03T11:30:29.381Z,5.90
2018-08-03T11:32:59.158Z,3.27
2018-08-03T11:35:29.532Z,5.10
2018-08-03T11:37:58.897Z,3.60
2018-08-03T11:40:29.120Z,4.80
2018-08-03T11:42:58.545Z,7.95
2018-08-03T11:45:27.895Z,9.25
2018-08-03T11:47:57.973Z,5.90
2018-08-03T11:50:27.369Z,5.05
2018-08-03T11:52:56.809Z,5.40
2018-08-03T11:55:28.393Z,4.80
2018-08-03T11:57:58.140Z,7.50
2018-08-03T12:00:28.437Z,5.58
2018-08-03T12:02:58.385Z,11.25
2018-08-03T12:05:27.885Z,5.90
2018-08-03T12:07:59.646Z,6.85
2018-08-03T12:10:29.133Z,2.83
2018-08-03T12:12:58.605Z,6.20
2018-08-03T12:15:28.074Z,4.92
2018-08-03T12:17:57.528Z,5.62
2018-08-03T12:20:26.945Z,5.10
2018-08-03T12:22:57.697Z,7.00
2018-08-03T12:25:27.173Z,4.85
2018-08-03T12:28:01.421Z,3.67
2018-08-03T12:30:30.863Z,3.45
2018-08-03T12:33:02.742Z,5.03
2018-08-03T12:35:32.239Z,3.40
2018-08-03T12:38:05.597Z,5.28
2018-08-03T12:40:35.061Z,7.08
2018-08-03T12:43:04.506Z,7.00
2018-08-03T12:45:35.379Z,6.90
2018-08-03T12:48:04.834Z,5.15
2018-08-03T12:50:34.744Z,4.70
2018-08-03T12:53:04.254Z,3.47
2018-08-03T12:55:33.721Z,4.25
2018-08-03T12:58:03.143Z,4.62
2018-08-03T13:00:32.557Z,3.40
2018-08-03T13:03:01.989Z,4.67
2018-08-03T13:05:31.586Z,4.70
2018-08-03T13:08:01.051Z,4.70
2018-08-03T13:10:30.360Z,3.20
2018-08-03T13:12:59.783Z,5.60
2018-08-03T13:15:28.886Z,4.17
2018-08-03T13:17:58.449Z,3.33
2018-08-03T13:20:32.289Z,8.87
2018-08-03T13:23:03.639Z,3.77
2018-08-03T13:25:33.301Z,4.15
2018-08-03T13:28:02.717Z,5.47
2018-08-03T13:30:32.046Z,4.33
2018-08-03T13:33:05.139Z,5.45
2018-08-03T13:35:34.561Z,5.17
2018-08-03T13:38:08.501Z,5.33
2018-08-03T13:40:37.982Z,6.22
2018-08-03T13:43:07.486Z,4.60
2018-08-03T13:45:37.053Z,5.00
2018-08-03T13:48:06.543Z,6.12
2018-08-03T13:50:41.558Z,4.08
2018-08-03T13:53:11.415Z,5.03
2018-08-03T13:55:42.766Z,9.15
2018-08-03T13:58:12.731Z,5.87
2018-08-03T14:00:42.672Z,3.17
2018-08-03T14:03:14.903Z,3.87
2018-08-03T14:05:44.567Z,10.10
2018-08-03T14:08:17.160Z,3.67
2018-08-03T14:10:46.867Z,4.22
2018-08-03T14:13:17.569Z,5.30
2018-08-03T14:15:47.084Z,3.75
2018-08-03T14:18:16.721Z,10.82
2018-08-03T14:20:47.996Z,4.05
2018-08-03T14:23:17.527Z,3.25
2018-08-03T14:25:49.223Z,4.20
2018-08-03T14:28:19.438Z,3.45
2018-08-03T14:30:49.058Z,5.42
2018-08-03T14:33:19.370Z,4.90
2018-08-03T14:35:49.234Z,4.45
2018-08-03T14:38:19.390Z,6.40
2018-08-03T14:40:50.414Z,5.87
2018-08-03T14:43:19.902Z,4.35
2018-08-03T14:45:51.598Z,3.00
2018-08-03T14:48:21.062Z,3.55
2018-08-03T14:50:50.474Z,3.27
2018-08-03T14:53:21.779Z,2.87
2018-08-03T14:55:51.279Z,7.55
2018-08-03T14:58:24.707Z,3.72
2018-08-03T15:00:53.960Z,7.70
2018-08-03T15:03:25.035Z,11.30
2018-08-03T15:05:54.670Z,7.42
2018-08-03T15:08:25.079Z,3.70
2018-08-03T15:10:54.640Z,4.58
2018-08-03T15:13:24.089Z,5.30
2018-08-03T15:15:53.652Z,5.25
2018-08-03T15:18:23.797Z,5.28
2018-08-03T15:20:53.293Z,8.05
2018-08-03T15:23:22.729Z,5.40
2018-08-03T15:25:55.987Z,4.80
2018-08-03T15:28:25.462Z,5.05
2018-08-03T15:30:57.281Z,3.33
2018-08-03T15:33:26.694Z,5.97
2018-08-03T15:35:56.156Z,4.10
2018-08-03T15:38:25.575Z,5.03
2018-08-03T15:40:54.706Z,4.00
2018-08-03T15:43:24.165Z,5.33
2018-08-03T15:45:55.367Z,5.65
2018-08-03T15:48:25.054Z,8.13
2018-08-03T15:50:58.359Z,4.55
2018-08-03T15:53:27.837Z,6.33
2018-08-03T15:55:57.546Z,5.55
2018-08-03T15:58:26.947Z,7.72
2018-08-03T16:00:56.357Z,6.83
2018-08-03T16:03:26.368Z,7.87
2018-08-03T16:05:56.133Z,8.45
2018-08-03T16:08:25.577Z,7.75
2018-08-03T16:10:55.859Z,4.35
2018-08-03T16:13:25.202Z,5.60
2018-08-03T16:15:54.530Z,4.75
2018-08-03T16:18:24.037Z,9.53
2018-08-03T16:20:53.486Z,7.55
2018-08-03T16:23:22.964Z,5.22
2018-08-03T16:25:52.298Z,7.15
2018-08-03T16:28:21.561Z,5.35
2018-08-03T16:30:50.917Z,6.15
2018-08-03T16:33:20.328Z,5.78
2018-08-03T16:35:49.704Z,6.00
2018-08-03T16:38:19.284Z,8.48
2018-08-03T16:40:48.909Z,5.70
2018-08-03T16:43:18.017Z,7.47
2018-08-03T16:45:47.424Z,4.83
2018-08-03T16:48:16.890Z,5.10
2018-08-03T16:50:46.292Z,6.20
2018-08-03T16:53:15.649Z,8.63
2018-08-03T16:55:45.023Z,8.45
2018-08-03T16:58:14.415Z,6.92
2018-08-03T17:00:43.762Z,5.97
2018-08-03T17:03:13.477Z,8.05
2018-08-03T17:05:43.232Z,6.10
2018-08-03T17:08:12.656Z,4.53
2018-08-03T17:10:42.006Z,8.35
2018-08-03T17:13:11.443Z,5.75
2018-08-03T17:15:41.010Z,5.35
2018-08-03T17:18:10.439Z,6.33
2018-08-03T17:20:39.778Z,7.03
2018-08-03T17:23:09.120Z,4.60
2018-08-03T17:25:38.639Z,7.08
2018-08-03T17:28:08.134Z,6.62
2018-08-03T17:30:40.310Z,7.33
2018-08-03T17:33:09.672Z,5.58
2018-08-03T17:35:39.085Z,5.53
2018-08-03T17:38:08.471Z,5.28
2018-08-03T17:40:37.830Z,9.63
2018-08-03T17:43:07.312Z,5.83
2018-08-03T17:45:36.841Z,6.05
2018-08-03T17:48:06.216Z,6.65
2018-08-03T17:50:35.568Z,8.30
2018-08-03T17:53:05.008Z,8.85
2018-08-03T17:55:34.380Z,8.55
2018-08-03T17:58:04.433Z,6.72
2018-08-03T18:00:33.840Z,4.97
2018-08-03T18:03:03.232Z,3.72
2018-08-03T18:05:32.592Z,9.88
2018-08-03T18:08:02.021Z,6.55
2018-08-03T18:10:31.381Z,6.77
2018-08-03T18:13:00.744Z,9.63
2018-08-03T18:15:30.105Z,9.25
2018-08-03T18:17:59.494Z,8.10
2018-08-03T18:20:28.838Z,7.42
2018-08-03T18:22:58.921Z,6.65
2018-08-03T18:25:28.261Z,6.08
2018-08-03T18:27:58.783Z,9.15
2018-08-03T18:30:28.133Z,7.75
2018-08-03T18:32:57.510Z,13.35
2018-08-03T18:35:26.862Z,9.65
2018-08-03T18:37:56.290Z,7.28
2018-08-03T18:40:25.640Z,8.08
2018-08-03T18:42:55.805Z,6.92
2018-08-03T18:45:25.167Z,7.22
2018-08-03T18:47:54.560Z,6.10
2018-08-03T18:50:25.665Z,5.28
2018-08-03T18:52:55.177Z,9.33
2018-08-03T18:55:28.551Z,6.65
2018-08-03T18:57:58.461Z,7.47
2018-08-03T19:00:31.947Z,4.85
2018-08-03T19:03:01.320Z,5.13
2018-08-03T19:05:30.689Z,7.05
2018-08-03T19:08:00.101Z,8.08
2018-08-03T19:10:29.458Z,5.13
2018-08-03T19:12:58.877Z,4.77
2018-08-03T19:15:29.237Z,7.50
2018-08-03T19:17:58.655Z,5.78
2018-08-03T19:20:28.105Z,8.30
2018-08-03T19:23:01.429Z,5.72
2018-08-03T19:25:30.861Z,7.03
2018-08-03T19:28:00.377Z,5.63
2018-08-03T19:30:30.362Z,6.50
2018-08-03T19:32:59.723Z,7.30
2018-08-03T19:35:29.063Z,5.50
2018-08-03T19:37:58.448Z,7.12
2018-08-03T19:40:27.788Z,8.03
2018-08-03T19:42:57.192Z,8.90
2018-08-03T19:45:26.841Z,5.12
2018-08-03T19:47:56.234Z,7.05
2018-08-03T19:50:27.774Z,4.78
2018-08-03T19:52:57.146Z,3.77
2018-08-03T19:55:26.524Z,6.83
2018-08-03T19:57:56.360Z,5.85
2018-08-03T20:00:26.578Z,5.53
2018-08-03T20:02:55.636Z,5.78
2018-08-03T20:05:25.048Z,5.97
2018-08-03T20:07:54.489Z,6.05
2018-08-03T20:10:23.809Z,4.42
2018-08-03T20:12:53.124Z,6.47
2018-08-03T20:15:23.600Z,5.05
2018-08-03T20:17:53.004Z,5.83
2018-08-03T20:20:27.325Z,6.45
2018-08-03T20:22:56.700Z,6.73
2018-08-03T20:25:27.880Z,8.70
2018-08-03T20:27:57.340Z,6.50
2018-08-03T20:30:27.021Z,6.92
2018-08-03T20:32:56.495Z,7.30
2018-08-03T20:35:25.885Z,11.55
2018-08-03T20:37:55.326Z,6.67
2018-08-03T20:40:25.219Z,6.62
2018-08-03T20:42:54.666Z,4.97
2018-08-03T20:45:24.006Z,8.38
2018-08-03T20:47:53.639Z,8.88
2018-08-03T20:50:23.060Z,9.93
2018-08-03T20:52:52.425Z,7.05
2018-08-03T20:55:22.014Z,4.70
2018-08-03T20:57:51.437Z,7.50
2018-08-03T21:00:20.805Z,5.72
2018-08-03T21:02:50.130Z,8.30
2018-08-03T21:05:19.464Z,8.63
2018-08-03T21:07:48.857Z,6.53
2018-08-03T21:10:19.776Z,5.07
2018-08-03T21:12:49.121Z,3.45
2018-08-03T21:15:18.473Z,6.50
2018-08-03T21:17:48.063Z,9.33
2018-08-03T21:20:17.127Z,9.10
2018-08-03T21:22:47.546Z,5.05
2018-08-03T21:25:16.907Z,4.65
2018-08-03T21:27:46.312Z,5.45
2018-08-03T21:30:15.746Z,8.50
2018-08-03T21:32:45.077Z,10.93
2018-08-03T21:35:14.478Z,6.87
2018-08-03T21:37:43.934Z,7.85
2018-08-03T21:40:13.369Z,6.10
2018-08-03T21:42:42.786Z,8.45
2018-08-03T21:45:13.108Z,7.17
2018-08-03T21:47:45.463Z,7.78
2018-08-03T21:50:14.802Z,8.50
2018-08-03T21:52:44.638Z,7.47
2018-08-03T21:55:14.030Z,7.15
2018-08-03T21:57:43.416Z,4.62
2018-08-03T22:00:19.341Z,6.03
2018-08-03T22:02:49.649Z,4.33
2018-08-03T22:05:19.106Z,8.90
2018-08-03T22:07:51.034Z,7.93
2018-08-03T22:10:20.421Z,7.90
2018-08-03T22:12:49.772Z,4.70
2018-08-03T22:15:19.174Z,5.05
2018-08-03T22:17:48.620Z,6.00
2018-08-03T22:20:17.975Z,5.55
2018-08-03T22:22:47.037Z,8.45
2018-08-03T22:25:16.404Z,5.65
2018-08-03T22:27:45.856Z,4.90
2018-08-03T22:30:16.558Z,7.75
2018-08-03T22:32:46.024Z,7.45
2018-08-03T22:35:15.325Z,4.67
2018-08-03T22:37:44.984Z,7.22
2018-08-03T22:40:14.621Z,7.10
2018-08-03T22:42:43.994Z,6.70
2018-08-03T22:45:13.560Z,5.87
2018-08-03T22:47:42.913Z,3.67
2018-08-03T22:50:12.331Z,8.53
2018-08-03T22:52:42.491Z,5.13
2018-08-03T22:55:11.815Z,10.67
2018-08-03T22:57:41.176Z,7.30
2018-08-03T23:00:10.908Z,4.65
2018-08-03T23:02:40.291Z,5.50
2018-08-03T23:05:10.021Z,6.65
2018-08-03T23:07:39.803Z,6.20
2018-08-03T23:10:09.236Z,5.72
2018-08-03T23:12:39.068Z,6.08
2018-08-03T23:15:08.733Z,8.05
2018-08-03T23:17:38.193Z,3.83
2018-08-03T23:20:08.111Z,8.40
2018-08-03T23:22:37.462Z,4.13
2018-08-03T23:25:06.835Z,7.53
2018-08-03T23:27:36.208Z,6.63
2018-08-03T23:30:06.771Z,4.83
2018-08-03T23:32:36.138Z,8.20
2018-08-03T23:35:07.265Z,7.45
2018-08-03T23:37:36.668Z,7.12
2018-08-03T23:40:06.768Z,6.20
2018-08-03T23:42:36.589Z,13.62
2018-08-03T23:45:06.787Z,10.68
2018-08-03T23:47:42.650Z,7.70
2018-08-03T23:50:17.080Z,7.85
2018-08-03T23:52:47.852Z,6.80
2018-08-03T23:55:17.286Z,6.53
2018-08-03T23:57:47.209Z,7.92
